Terminal Aerodrome Forecast
Issued by NWS Amarillo, TX

Home | Current Version | Previous Version | Text Only | Print | Product List | Glossary On
Versions: 1 2 3 4 5 6 7 8 9 10 11 12 13 14 15 16 17 18 19 20 21 22 23 24 25 26 27 28 29
000
FTUS44 KAMA 021200 AAA
TAFDHT
TAF AMD
KDHT 021253Z 0213/0312 20006KT 5SM BR SCT010
      TEMPO 0213/0217 3SM BR OVC010
     FM021900 20016G26KT P6SM OVC015
     FM022200 20016KT P6SM OVC050
     FM030200 20016G26KT P6SM SCT050 BKN200=

USA.gov is the U.S. government's official web portal to all federal, state and local government web resources and services.